First Ferry Viii — VRS4306 — position and weather

sailwx.info

Track history (hours):
 
Tides and Currents Weather Stations Pressure Air Temp Water Temp Dewpoint Dewpoint Depression Visibility Wind Speed Wind Dir Waves Ship Positions

First Ferry Viii

Last reported at 2016-Aug-31 15:33 UTC. Time now 2016-Aug-31 16:06 UTC.
Position N 22°17' E 114°10'.

Length 36 m; draft 1.8 m.

Type: High speed craft. MMSI: 477995030.

Date/timePositionNaut miles runAvg speedWind from/ knotsBaromVisibWave heightAir tempDewpointWater temp
2016-Aug-31 15:33N 22°17' E 114°10'2 1.4
2016-Aug-31 14:10N 22°18' E 114°08'2 3.1
2016-Aug-31 13:33N 22°17' E 114°10'2 1.6
2016-Aug-31 12:12N 22°18' E 114°07'0 0.3
2016-Aug-31 10:33N 22°18' E 114°08'2 0.8
2016-Aug-31 08:20N 22°17' E 114°10'0 0.0
2016-Aug-31 06:21N 22°17' E 114°10'0 0.0
2016-Aug-31 04:25N 22°17' E 114°10'0 0.0
2016-Aug-31 00:34N 22°17' E 114°10'2 1.6
2016-Aug-30 23:20N 22°18' E 114°07'2 0.3
2016-Aug-30 15:32N 22°17' E 114°10'2 1.7
2016-Aug-30 14:09N 22°17' E 114°07'2 3.9
2016-Aug-30 13:33N 22°17' E 114°10'2 1.6
2016-Aug-30 12:11N 22°17' E 114°07'2 2.7
2016-Aug-30 11:34N 22°18' E 114°09'1 1.2
2016-Aug-30 10:29N 22°18' E 114°08'2 0.9
2016-Aug-30 08:27N 22°17' E 114°10'1 0.2
2016-Aug-30 05:31N 22°17' E 114°10'1 0.3
2016-Aug-30 03:21N 22°17' E 114°10'0 0.1
2016-Aug-30 01:33N 22°17' E 114°10'0 0.2
2016-Aug-30 00:33N 22°17' E 114°09'2 1.6
2016-Aug-29 23:21N 22°17' E 114°07'2 0.3
2016-Aug-29 15:33N 22°17' E 114°10'3 1.8
2016-Aug-29 14:11N 22°17' E 114°07'3 3.9
2016-Aug-29 13:32N 22°17' E 114°10'2 1.7
2016-Aug-29 12:12N 22°17' E 114°07'2 3.0
2016-Aug-29 11:33N 22°18' E 114°09'2 2.2
2016-Aug-29 10:32N 22°18' E 114°07'3 1.3
2016-Aug-29 08:33N 22°17' E 114°10'0 0.0
2016-Aug-29 06:27N 22°17' E 114°10'0 0.0
2016-Aug-29 04:33N 22°17' E 114°10'3 0.8
2016-Aug-29 01:05N 22°19' E 114°12'3 5.3
2016-Aug-29 00:33N 22°18' E 114°09'2 1.7
2016-Aug-28 23:21N 22°17' E 114°07'0 0.0
2016-Aug-28 16:06N 22°17' E 114°07'2 3.7
2016-Aug-28 15:32N 22°17' E 114°10'2 1.6
2016-Aug-28 14:11N 22°17' E 114°07'2 2.9
2016-Aug-28 13:25N 22°17' E 114°10'2 1.9
2016-Aug-28 12:11N 22°17' E 114°07'2 3.0
2016-Aug-28 11:24N 22°17' E 114°10'3 2.1
2016-Aug-28 10:12N 22°17' E 114°07'3 3.7
2016-Aug-28 09:31N 22°17' E 114°10'3 1.9
2016-Aug-28 08:11N 22°17' E 114°07'3 4.0
2016-Aug-28 07:33N 22°17' E 114°10'1 0.1
2016-Aug-28 02:33N 22°18' E 114°09'2 1.1
2016-Aug-28 01:06N 22°18' E 114°07'2 3.7
2016-Aug-28 00:33N 22°17' E 114°10'0 0.1
2016-Aug-27 23:33N 22°17' E 114°10'0 0.0
2016-Aug-27 16:33N 22°17' E 114°09'1 0.7
2016-Aug-27 15:08N 22°18' E 114°08'1 2.0
2016-Aug-27 14:33N 22°17' E 114°10'3 1.9
2016-Aug-27 13:12N 22°18' E 114°07'3 0.7
2016-Aug-27 09:26N 22°17' E 114°10'0 0.0
2016-Aug-27 07:33N 22°17' E 114°10'0 0.0
2016-Aug-27 03:29N 22°17' E 114°10'0 0.1
2016-Aug-27 01:33N 22°17' E 114°10'2 1.8
2016-Aug-27 00:12N 22°17' E 114°07'2 3.9
2016-Aug-26 23:33N 22°17' E 114°10'0 0.0
2016-Aug-26 16:33N 22°17' E 114°10'2 1.7
2016-Aug-26 15:11N 22°17' E 114°07'2 3.8
2016-Aug-26 14:33N 22°17' E 114°10'2 1.4
2016-Aug-26 13:10N 22°18' E 114°08'1 1.9
2016-Aug-26 12:33N 22°18' E 114°09'1 0.2
2016-Aug-26 09:25N 22°17' E 114°10'0 0.0
2016-Aug-26 07:31N 22°17' E 114°10'1 0.1
2016-Aug-26 01:34N 22°18' E 114°09'2 1.4
2016-Aug-26 00:11N 22°17' E 114°07'2 3.7
2016-Aug-25 23:33N 22°17' E 114°10'0 0.0
2016-Aug-25 16:32N 22°17' E 114°10'2 1.2
2016-Aug-25 15:10N 22°18' E 114°08'2 2.6
2016-Aug-25 14:31N 22°17' E 114°10'2 1.4
2016-Aug-25 13:09N 22°18' E 114°08'1 1.3
2016-Aug-25 12:34N 22°18' E 114°08'1 0.4
2016-Aug-25 09:19N 22°17' E 114°10'0 0.0
2016-Aug-25 07:21N 22°17' E 114°10'0 0.0
2016-Aug-25 01:33N 22°17' E 114°09'2 1.5
2016-Aug-25 00:11N 22°17' E 114°07'2 2.8
2016-Aug-24 23:33N 22°18' E 114°09'0 0.1
2016-Aug-24 16:33N 22°17' E 114°10'2 1.4
2016-Aug-24 15:10N 22°18' E 114°07'2 3.3
2016-Aug-24 14:34N 22°17' E 114°10'2 1.6
2016-Aug-24 13:09N 22°17' E 114°07'2 3.4
2016-Aug-24 12:28N 22°17' E 114°10'2 1.6
2016-Aug-24 11:10N 22°18' E 114°07'2 2.8
2016-Aug-24 10:30N 22°19' E 114°09'1 0.1
2016-Aug-24 01:33N 22°17' E 114°09'1 0.9
2016-Aug-24 00:09N 22°18' E 114°08'2 2.6
2016-Aug-23 23:33N 22°17' E 114°10'0 0.0
2016-Aug-23 16:33N 22°17' E 114°09'2 1.8
2016-Aug-23 15:13N 22°18' E 114°07'3 3.8
2016-Aug-23 14:33N 22°17' E 114°10'3 2.0
2016-Aug-23 13:14N 22°18' E 114°07'2 3.0
2016-Aug-23 12:34N 22°18' E 114°09'1 0.2
2016-Aug-23 09:32N 22°17' E 114°10'0 0.0
2016-Aug-23 07:28N 22°17' E 114°10'1 0.2
2016-Aug-23 03:11N 22°17' E 114°10'1 0.7
2016-Aug-23 01:33N 22°18' E 114°09'2 1.5
2016-Aug-23 00:11N 22°17' E 114°07'2 3.5
2016-Aug-22 23:33N 22°17' E 114°10'0 0.0
2016-Aug-22 16:33N 22°17' E 114°09'2 1.5
2016-Aug-22 15:11N 22°18' E 114°07'2 3.4
2016-Aug-22 14:34N 22°17' E 114°10'3 1.8
2016-Aug-22 13:12N 22°17' E 114°07'2 3.0
2016-Aug-22 12:33N 22°18' E 114°09'1 0.2
2016-Aug-22 09:26N 22°17' E 114°10'0 0.0
2016-Aug-22 07:26N 22°17' E 114°10'0 0.1
2016-Aug-22 05:33N 22°17' E 114°09'0 0.1
2016-Aug-22 01:33N 22°17' E 114°09'2 1.4
2016-Aug-22 00:11N 22°17' E 114°07'2 3.2
2016-Aug-21 23:34N 22°17' E 114°09'0 0.0
2016-Aug-21 16:32N 22°17' E 114°10'  
Track history (hours):
 
Tides and Currents Weather Stations Pressure Air Temp Water Temp Dewpoint Dewpoint Depression Visibility Wind Speed Wind Dir Waves Ship Positions

First Ferry Viii

Last reported at 2016-Aug-31 15:33 UTC. Time now 2016-Aug-31 16:06 UTC.
Position N 22°17' E 114°10'.

Length 36 m; draft 1.8 m.

Type: High speed craft. MMSI: 477995030.

Date/timePositionNaut miles runAvg speedWind from/ knotsBaromVisibWave heightAir tempDewpointWater temp
2016-Aug-31 15:33N 22°17' E 114°10'2 1.4
2016-Aug-31 14:10N 22°18' E 114°08'2 3.1
2016-Aug-31 13:33N 22°17' E 114°10'2 1.6
2016-Aug-31 12:12N 22°18' E 114°07'0 0.3
2016-Aug-31 10:33N 22°18' E 114°08'2 0.8
2016-Aug-31 08:20N 22°17' E 114°10'0 0.0
2016-Aug-31 06:21N 22°17' E 114°10'0 0.0
2016-Aug-31 04:25N 22°17' E 114°10'0 0.0
2016-Aug-31 00:34N 22°17' E 114°10'2 1.6
2016-Aug-30 23:20N 22°18' E 114°07'2 0.3
2016-Aug-30 15:32N 22°17' E 114°10'2 1.7
2016-Aug-30 14:09N 22°17' E 114°07'2 3.9
2016-Aug-30 13:33N 22°17' E 114°10'2 1.6
2016-Aug-30 12:11N 22°17' E 114°07'2 2.7
2016-Aug-30 11:34N 22°18' E 114°09'1 1.2
2016-Aug-30 10:29N 22°18' E 114°08'2 0.9
2016-Aug-30 08:27N 22°17' E 114°10'1 0.2
2016-Aug-30 05:31N 22°17' E 114°10'1 0.3
2016-Aug-30 03:21N 22°17' E 114°10'0 0.1
2016-Aug-30 01:33N 22°17' E 114°10'0 0.2
2016-Aug-30 00:33N 22°17' E 114°09'2 1.6
2016-Aug-29 23:21N 22°17' E 114°07'2 0.3
2016-Aug-29 15:33N 22°17' E 114°10'3 1.8
2016-Aug-29 14:11N 22°17' E 114°07'3 3.9
2016-Aug-29 13:32N 22°17' E 114°10'2 1.7
2016-Aug-29 12:12N 22°17' E 114°07'2 3.0
2016-Aug-29 11:33N 22°18' E 114°09'2 2.2
2016-Aug-29 10:32N 22°18' E 114°07'3 1.3
2016-Aug-29 08:33N 22°17' E 114°10'0 0.0
2016-Aug-29 06:27N 22°17' E 114°10'0 0.0
2016-Aug-29 04:33N 22°17' E 114°10'3 0.8
2016-Aug-29 01:05N 22°19' E 114°12'3 5.3
2016-Aug-29 00:33N 22°18' E 114°09'2 1.7
2016-Aug-28 23:21N 22°17' E 114°07'0 0.0
2016-Aug-28 16:06N 22°17' E 114°07'2 3.7
2016-Aug-28 15:32N 22°17' E 114°10'2 1.6
2016-Aug-28 14:11N 22°17' E 114°07'2 2.9
2016-Aug-28 13:25N 22°17' E 114°10'2 1.9
2016-Aug-28 12:11N 22°17' E 114°07'2 3.0
2016-Aug-28 11:24N 22°17' E 114°10'3 2.1
2016-Aug-28 10:12N 22°17' E 114°07'3 3.7
2016-Aug-28 09:31N 22°17' E 114°10'3 1.9
2016-Aug-28 08:11N 22°17' E 114°07'3 4.0
2016-Aug-28 07:33N 22°17' E 114°10'1 0.1
2016-Aug-28 02:33N 22°18' E 114°09'2 1.1
2016-Aug-28 01:06N 22°18' E 114°07'2 3.7
2016-Aug-28 00:33N 22°17' E 114°10'0 0.1
2016-Aug-27 23:33N 22°17' E 114°10'0 0.0
2016-Aug-27 16:33N 22°17' E 114°09'1 0.7
2016-Aug-27 15:08N 22°18' E 114°08'1 2.0
2016-Aug-27 14:33N 22°17' E 114°10'3 1.9
2016-Aug-27 13:12N 22°18' E 114°07'3 0.7
2016-Aug-27 09:26N 22°17' E 114°10'0 0.0
2016-Aug-27 07:33N 22°17' E 114°10'0 0.0
2016-Aug-27 03:29N 22°17' E 114°10'0 0.1
2016-Aug-27 01:33N 22°17' E 114°10'2 1.8
2016-Aug-27 00:12N 22°17' E 114°07'2 3.9
2016-Aug-26 23:33N 22°17' E 114°10'0 0.0
2016-Aug-26 16:33N 22°17' E 114°10'2 1.7
2016-Aug-26 15:11N 22°17' E 114°07'2 3.8
2016-Aug-26 14:33N 22°17' E 114°10'2 1.4
2016-Aug-26 13:10N 22°18' E 114°08'1 1.9
2016-Aug-26 12:33N 22°18' E 114°09'1 0.2
2016-Aug-26 09:25N 22°17' E 114°10'0 0.0
2016-Aug-26 07:31N 22°17' E 114°10'1 0.1
2016-Aug-26 01:34N 22°18' E 114°09'2 1.4
2016-Aug-26 00:11N 22°17' E 114°07'2 3.7
2016-Aug-25 23:33N 22°17' E 114°10'0 0.0
2016-Aug-25 16:32N 22°17' E 114°10'2 1.2
2016-Aug-25 15:10N 22°18' E 114°08'2 2.6
2016-Aug-25 14:31N 22°17' E 114°10'2 1.4
2016-Aug-25 13:09N 22°18' E 114°08'1 1.3
2016-Aug-25 12:34N 22°18' E 114°08'1 0.4
2016-Aug-25 09:19N 22°17' E 114°10'0 0.0
2016-Aug-25 07:21N 22°17' E 114°10'0 0.0
2016-Aug-25 01:33N 22°17' E 114°09'2 1.5
2016-Aug-25 00:11N 22°17' E 114°07'2 2.8
2016-Aug-24 23:33N 22°18' E 114°09'0 0.1
2016-Aug-24 16:33N 22°17' E 114°10'2 1.4
2016-Aug-24 15:10N 22°18' E 114°07'2 3.3
2016-Aug-24 14:34N 22°17' E 114°10'2 1.6
2016-Aug-24 13:09N 22°17' E 114°07'2 3.4
2016-Aug-24 12:28N 22°17' E 114°10'2 1.6
2016-Aug-24 11:10N 22°18' E 114°07'2 2.8
2016-Aug-24 10:30N 22°19' E 114°09'1 0.1
2016-Aug-24 01:33N 22°17' E 114°09'1 0.9
2016-Aug-24 00:09N 22°18' E 114°08'2 2.6
2016-Aug-23 23:33N 22°17' E 114°10'0 0.0
2016-Aug-23 16:33N 22°17' E 114°09'2 1.8
2016-Aug-23 15:13N 22°18' E 114°07'3 3.8
2016-Aug-23 14:33N 22°17' E 114°10'3 2.0
2016-Aug-23 13:14N 22°18' E 114°07'2 3.0
2016-Aug-23 12:34N 22°18' E 114°09'1 0.2
2016-Aug-23 09:32N 22°17' E 114°10'0 0.0
2016-Aug-23 07:28N 22°17' E 114°10'1 0.2
2016-Aug-23 03:11N 22°17' E 114°10'1 0.7
2016-Aug-23 01:33N 22°18' E 114°09'2 1.5
2016-Aug-23 00:11N 22°17' E 114°07'2 3.5
2016-Aug-22 23:33N 22°17' E 114°10'0 0.0
2016-Aug-22 16:33N 22°17' E 114°09'2 1.5
2016-Aug-22 15:11N 22°18' E 114°07'2 3.4
2016-Aug-22 14:34N 22°17' E 114°10'3 1.8
2016-Aug-22 13:12N 22°17' E 114°07'2 3.0
2016-Aug-22 12:33N 22°18' E 114°09'1 0.2
2016-Aug-22 09:26N 22°17' E 114°10'0 0.0
2016-Aug-22 07:26N 22°17' E 114°10'0 0.1
2016-Aug-22 05:33N 22°17' E 114°09'0 0.1
2016-Aug-22 01:33N 22°17' E 114°09'2 1.4
2016-Aug-22 00:11N 22°17' E 114°07'2 3.2
2016-Aug-21 23:34N 22°17' E 114°09'0 0.0
2016-Aug-21 16:32N 22°17' E 114°10'  

Dump ship's entire track history